sensor_id;sensor_type;location;lat;lon;timestamp;temperature;humidity
13264;DHT22;6700;51.988;7.646;2022-08-19T00:02:04;17.80;99.90
13264;DHT22;6700;51.988;7.646;2022-08-19T00:04:34;18.00;99.90
13264;DHT22;6700;51.988;7.646;2022-08-19T00:07:05;18.00;99.90
13264;DHT22;6700;51.988;7.646;2022-08-19T00:09:31;17.70;99.90
13264;DHT22;6700;51.988;7.646;2022-08-19T00:11:59;18.00;99.90
13264;DHT22;6700;51.988;7.646;2022-08-19T00:14:27;17.90;99.90
13264;DHT22;6700;51.988;7.646;2022-08-19T00:16:58;17.90;99.90
13264;DHT22;6700;51.988;7.646;2022-08-19T00:19:25;17.90;99.90
13264;DHT22;6700;51.988;7.646;2022-08-19T00:21:53;17.60;99.90
13264;DHT22;6700;51.988;7.646;2022-08-19T00:24:20;17.50;99.90
13264;DHT22;6700;51.988;7.646;2022-08-19T00:26:47;17.90;99.90
13264;DHT22;6700;51.988;7.646;2022-08-19T00:29:17;17.50;99.90
13264;DHT22;6700;51.988;7.646;2022-08-19T00:31:46;17.60;99.90
13264;DHT22;6700;51.988;7.646;2022-08-19T00:34:16;17.60;99.90
13264;DHT22;6700;51.988;7.646;2022-08-19T00:36:43;17.90;99.90
13264;DHT22;6700;51.988;7.646;2022-08-19T00:39:11;17.70;99.90
13264;DHT22;6700;51.988;7.646;2022-08-19T00:41:38;17.50;99.90
13264;DHT22;6700;51.988;7.646;2022-08-19T00:44:08;17.70;99.90
13264;DHT22;6700;51.988;7.646;2022-08-19T00:46:37;17.30;99.90
13264;DHT22;6700;51.988;7.646;2022-08-19T00:49:24;18.00;99.90
13264;DHT22;6700;51.988;7.646;2022-08-19T00:51:57;17.60;99.90
13264;DHT22;6700;51.988;7.646;2022-08-19T00:54:25;17.60;99.90
13264;DHT22;6700;51.988;7.646;2022-08-19T00:56:58;17.30;99.90
13264;DHT22;6700;51.988;7.646;2022-08-19T00:59:27;17.60;99.90
13264;DHT22;6700;51.988;7.646;2022-08-19T01:02:16;17.50;99.90
13264;DHT22;6700;51.988;7.646;2022-08-19T01:04:43;17.40;99.90
13264;DHT22;6700;51.988;7.646;2022-08-19T01:07:10;17.40;99.90
13264;DHT22;6700;51.988;7.646;2022-08-19T01:09:42;17.20;99.90
13264;DHT22;6700;51.988;7.646;2022-08-19T01:12:09;17.40;99.90
13264;DHT22;6700;51.988;7.646;2022-08-19T01:14:39;17.20;99.90
13264;DHT22;6700;51.988;7.646;2022-08-19T01:17:11;17.60;99.90
13264;DHT22;6700;51.988;7.646;2022-08-19T01:19:41;17.50;99.90
13264;DHT22;6700;51.988;7.646;2022-08-19T01:22:16;17.20;99.90
13264;DHT22;6700;51.988;7.646;2022-08-19T01:24:54;17.40;99.90
13264;DHT22;6700;51.988;7.646;2022-08-19T01:27:22;17.20;99.90
13264;DHT22;6700;51.988;7.646;2022-08-19T01:29:50;17.20;99.90
13264;DHT22;6700;51.988;7.646;2022-08-19T01:32:17;17.30;99.90
13264;DHT22;6700;51.988;7.646;2022-08-19T01:35:00;17.20;99.90
13264;DHT22;6700;51.988;7.646;2022-08-19T01:37:28;17.00;99.90
13264;DHT22;6700;51.988;7.646;2022-08-19T01:39:57;17.00;99.90
13264;DHT22;6700;51.988;7.646;2022-08-19T01:42:24;17.30;99.90
13264;DHT22;6700;51.988;7.646;2022-08-19T01:44:56;16.90;99.90
13264;DHT22;6700;51.988;7.646;2022-08-19T01:47:23;17.10;99.90
13264;DHT22;6700;51.988;7.646;2022-08-19T01:49:50;17.10;99.90
13264;DHT22;6700;51.988;7.646;2022-08-19T01:52:16;17.00;99.90
13264;DHT22;6700;51.988;7.646;2022-08-19T01:54:43;16.90;99.90
13264;DHT22;6700;51.988;7.646;2022-08-19T01:57:12;16.80;99.90
13264;DHT22;6700;51.988;7.646;2022-08-19T01:59:41;17.00;99.90
13264;DHT22;6700;51.988;7.646;2022-08-19T02:02:09;16.90;99.90
13264;DHT22;6700;51.988;7.646;2022-08-19T02:04:36;17.20;99.90
13264;DHT22;6700;51.988;7.646;2022-08-19T02:07:05;16.90;99.90
13264;DHT22;6700;51.988;7.646;2022-08-19T02:09:32;17.10;99.90
13264;DHT22;6700;51.988;7.646;2022-08-19T02:12:00;16.90;99.90
13264;DHT22;6700;51.988;7.646;2022-08-19T02:14:27;16.70;99.90
13264;DHT22;6700;51.988;7.646;2022-08-19T02:16:54;17.10;99.90
13264;DHT22;6700;51.988;7.646;2022-08-19T02:19:21;17.10;99.90
13264;DHT22;6700;51.988;7.646;2022-08-19T02:21:48;16.80;99.90
13264;DHT22;6700;51.988;7.646;2022-08-19T02:24:14;16.90;99.90
13264;DHT22;6700;51.988;7.646;2022-08-19T02:26:41;16.90;99.90
13264;DHT22;6700;51.988;7.646;2022-08-19T02:29:08;16.90;99.90
13264;DHT22;6700;51.988;7.646;2022-08-19T02:31:35;16.90;99.90
13264;DHT22;6700;51.988;7.646;2022-08-19T02:34:03;16.90;99.90
13264;DHT22;6700;51.988;7.646;2022-08-19T02:36:30;16.70;99.90
13264;DHT22;6700;51.988;7.646;2022-08-19T02:38:56;16.70;99.90
13264;DHT22;6700;51.988;7.646;2022-08-19T02:41:29;16.70;99.90
13264;DHT22;6700;51.988;7.646;2022-08-19T02:44:00;16.80;99.90
13264;DHT22;6700;51.988;7.646;2022-08-19T02:46:47;16.90;99.90
13264;DHT22;6700;51.988;7.646;2022-08-19T02:49:18;16.70;99.90
13264;DHT22;6700;51.988;7.646;2022-08-19T02:51:45;16.60;99.90
13264;DHT22;6700;51.988;7.646;2022-08-19T02:54:13;16.90;99.90
13264;DHT22;6700;51.988;7.646;2022-08-19T02:56:42;16.90;99.90
13264;DHT22;6700;51.988;7.646;2022-08-19T02:59:09;16.80;99.90
13264;DHT22;6700;51.988;7.646;2022-08-19T03:01:39;16.60;99.90
13264;DHT22;6700;51.988;7.646;2022-08-19T03:04:14;16.60;99.90
13264;DHT22;6700;51.988;7.646;2022-08-19T03:06:44;16.70;99.90
13264;DHT22;6700;51.988;7.646;2022-08-19T03:09:12;16.70;99.90
13264;DHT22;6700;51.988;7.646;2022-08-19T03:11:40;16.80;99.90
13264;DHT22;6700;51.988;7.646;2022-08-19T03:14:09;16.60;99.90
13264;DHT22;6700;51.988;7.646;2022-08-19T03:16:47;16.80;99.90
13264;DHT22;6700;51.988;7.646;2022-08-19T03:19:16;16.80;99.90
13264;DHT22;6700;51.988;7.646;2022-08-19T03:21:44;16.80;99.90
13264;DHT22;6700;51.988;7.646;2022-08-19T03:24:13;16.70;99.90
13264;DHT22;6700;51.988;7.646;2022-08-19T03:26:42;16.60;99.90
13264;DHT22;6700;51.988;7.646;2022-08-19T03:29:09;16.50;99.90
13264;DHT22;6700;51.988;7.646;2022-08-19T03:31:41;16.50;99.90
13264;DHT22;6700;51.988;7.646;2022-08-19T03:34:29;16.60;99.90
13264;DHT22;6700;51.988;7.646;2022-08-19T03:36:59;16.40;99.90
13264;DHT22;6700;51.988;7.646;2022-08-19T03:39:27;16.50;99.90
13264;DHT22;6700;51.988;7.646;2022-08-19T03:41:55;16.40;99.90
13264;DHT22;6700;51.988;7.646;2022-08-19T03:44:50;16.60;99.90
13264;DHT22;6700;51.988;7.646;2022-08-19T03:47:18;16.40;99.90
13264;DHT22;6700;51.988;7.646;2022-08-19T03:49:44;16.40;99.90
13264;DHT22;6700;51.988;7.646;2022-08-19T03:52:11;16.30;99.90
13264;DHT22;6700;51.988;7.646;2022-08-19T03:54:38;16.30;99.90
13264;DHT22;6700;51.988;7.646;2022-08-19T03:57:06;16.50;99.90
13264;DHT22;6700;51.988;7.646;2022-08-19T03:59:35;16.40;99.90
13264;DHT22;6700;51.988;7.646;2022-08-19T04:02:05;16.40;99.90
13264;DHT22;6700;51.988;7.646;2022-08-19T04:04:35;16.50;99.90
13264;DHT22;6700;51.988;7.646;2022-08-19T04:07:24;16.40;99.90
13264;DHT22;6700;51.988;7.646;2022-08-19T04:09:51;16.40;99.90
13264;DHT22;6700;51.988;7.646;2022-08-19T04:12:20;16.60;99.90
13264;DHT22;6700;51.988;7.646;2022-08-19T04:14:53;16.60;99.90
13264;DHT22;6700;51.988;7.646;2022-08-19T04:17:21;16.40;99.90
13264;DHT22;6700;51.988;7.646;2022-08-19T04:19:48;16.60;99.90
13264;DHT22;6700;51.988;7.646;2022-08-19T04:22:15;16.60;99.90
13264;DHT22;6700;51.988;7.646;2022-08-19T04:24:42;16.50;99.90
13264;DHT22;6700;51.988;7.646;2022-08-19T04:27:09;16.50;99.90
13264;DHT22;6700;51.988;7.646;2022-08-19T04:29:35;16.60;99.90
13264;DHT22;6700;51.988;7.646;2022-08-19T04:32:06;16.40;99.90
13264;DHT22;6700;51.988;7.646;2022-08-19T04:34:36;16.50;99.90
13264;DHT22;6700;51.988;7.646;2022-08-19T04:37:24;16.50;99.90
13264;DHT22;6700;51.988;7.646;2022-08-19T04:39:54;16.40;99.90
13264;DHT22;6700;51.988;7.646;2022-08-19T04:42:40;16.50;99.90
13264;DHT22;6700;51.988;7.646;2022-08-19T04:45:10;16.50;99.90
13264;DHT22;6700;51.988;7.646;2022-08-19T04:47:41;16.50;99.90
13264;DHT22;6700;51.988;7.646;2022-08-19T04:50:24;16.50;99.90
13264;DHT22;6700;51.988;7.646;2022-08-19T04:52:51;16.60;99.90
13264;DHT22;6700;51.988;7.646;2022-08-19T04:55:20;16.60;99.90
13264;DHT22;6700;51.988;7.646;2022-08-19T04:57:46;16.40;99.90
13264;DHT22;6700;51.988;7.646;2022-08-19T05:00:14;16.50;99.90
13264;DHT22;6700;51.988;7.646;2022-08-19T05:02:41;16.50;99.90
13264;DHT22;6700;51.988;7.646;2022-08-19T05:05:08;16.50;99.90
13264;DHT22;6700;51.988;7.646;2022-08-19T05:07:35;16.50;99.90
13264;DHT22;6700;51.988;7.646;2022-08-19T05:10:04;16.60;99.90
13264;DHT22;6700;51.988;7.646;2022-08-19T05:12:32;16.60;99.90
13264;DHT22;6700;51.988;7.646;2022-08-19T05:14:59;16.50;99.90
13264;DHT22;6700;51.988;7.646;2022-08-19T05:17:27;16.70;99.90
13264;DHT22;6700;51.988;7.646;2022-08-19T05:20:03;16.70;99.90
13264;DHT22;6700;51.988;7.646;2022-08-19T05:22:48;16.70;99.90
13264;DHT22;6700;51.988;7.646;2022-08-19T05:25:18;16.50;99.90
13264;DHT22;6700;51.988;7.646;2022-08-19T05:27:47;16.80;99.90
13264;DHT22;6700;51.988;7.646;2022-08-19T05:30:15;16.70;99.90
13264;DHT22;6700;51.988;7.646;2022-08-19T05:32:42;16.80;99.90
13264;DHT22;6700;51.988;7.646;2022-08-19T05:35:11;17.00;99.90
13264;DHT22;6700;51.988;7.646;2022-08-19T05:37:38;17.00;99.90
13264;DHT22;6700;51.988;7.646;2022-08-19T05:40:08;17.10;99.90
13264;DHT22;6700;51.988;7.646;2022-08-19T05:42:36;17.20;99.90
13264;DHT22;6700;51.988;7.646;2022-08-19T05:45:04;17.20;99.90
13264;DHT22;6700;51.988;7.646;2022-08-19T05:47:31;16.00;99.90
13264;DHT22;6700;51.988;7.646;2022-08-19T05:49:58;17.40;99.90
13264;DHT22;6700;51.988;7.646;2022-08-19T05:52:25;17.40;99.90
13264;DHT22;6700;51.988;7.646;2022-08-19T05:54:56;17.40;99.90
13264;DHT22;6700;51.988;7.646;2022-08-19T05:57:23;17.50;99.90
13264;DHT22;6700;51.988;7.646;2022-08-19T05:59:51;17.50;99.90
13264;DHT22;6700;51.988;7.646;2022-08-19T06:02:25;17.60;99.90
13264;DHT22;6700;51.988;7.646;2022-08-19T06:04:52;18.00;99.90
13264;DHT22;6700;51.988;7.646;2022-08-19T06:07:19;18.00;99.90
13264;DHT22;6700;51.988;7.646;2022-08-19T06:09:46;18.20;99.90
13264;DHT22;6700;51.988;7.646;2022-08-19T06:12:27;18.40;99.90
13264;DHT22;6700;51.988;7.646;2022-08-19T06:15:04;18.60;99.90
13264;DHT22;6700;51.988;7.646;2022-08-19T06:17:32;18.40;99.90
13264;DHT22;6700;51.988;7.646;2022-08-19T06:20:06;18.80;99.90
13264;DHT22;6700;51.988;7.646;2022-08-19T06:22:46;18.60;99.90
13264;DHT22;6700;51.988;7.646;2022-08-19T06:25:15;18.90;99.90
13264;DHT22;6700;51.988;7.646;2022-08-19T06:27:44;19.20;99.90
13264;DHT22;6700;51.988;7.646;2022-08-19T06:30:31;19.20;99.90
13264;DHT22;6700;51.988;7.646;2022-08-19T06:32:59;19.30;99.90
13264;DHT22;6700;51.988;7.646;2022-08-19T06:35:26;19.50;99.90
13264;DHT22;6700;51.988;7.646;2022-08-19T06:37:54;19.60;99.90
13264;DHT22;6700;51.988;7.646;2022-08-19T06:40:21;19.50;99.90
13264;DHT22;6700;51.988;7.646;2022-08-19T06:42:48;19.70;99.90
13264;DHT22;6700;51.988;7.646;2022-08-19T06:45:24;19.40;99.90
13264;DHT22;6700;51.988;7.646;2022-08-19T06:48:01;19.80;99.90
13264;DHT22;6700;51.988;7.646;2022-08-19T06:50:29;19.80;99.90
13264;DHT22;6700;51.988;7.646;2022-08-19T06:52:55;20.00;99.90
13264;DHT22;6700;51.988;7.646;2022-08-19T06:55:23;20.20;99.90
13264;DHT22;6700;51.988;7.646;2022-08-19T06:57:50;20.60;99.90
13264;DHT22;6700;51.988;7.646;2022-08-19T07:00:21;20.50;99.90
13264;DHT22;6700;51.988;7.646;2022-08-19T07:02:48;20.80;99.90
13264;DHT22;6700;51.988;7.646;2022-08-19T07:05:24;20.70;99.90
13264;DHT22;6700;51.988;7.646;2022-08-19T07:07:51;20.80;99.90
13264;DHT22;6700;51.988;7.646;2022-08-19T07:10:18;21.00;99.90
13264;DHT22;6700;51.988;7.646;2022-08-19T07:12:45;20.90;99.90
13264;DHT22;6700;51.988;7.646;2022-08-19T07:15:14;21.20;99.90
13264;DHT22;6700;51.988;7.646;2022-08-19T07:17:42;21.00;99.90
13264;DHT22;6700;51.988;7.646;2022-08-19T07:20:10;21.00;99.90
13264;DHT22;6700;51.988;7.646;2022-08-19T07:22:38;21.20;99.90
13264;DHT22;6700;51.988;7.646;2022-08-19T07:25:07;21.30;99.90
13264;DHT22;6700;51.988;7.646;2022-08-19T07:27:35;21.50;99.90
13264;DHT22;6700;51.988;7.646;2022-08-19T07:30:06;21.40;99.90
13264;DHT22;6700;51.988;7.646;2022-08-19T07:32:38;21.80;99.90
13264;DHT22;6700;51.988;7.646;2022-08-19T07:35:05;21.90;99.90
13264;DHT22;6700;51.988;7.646;2022-08-19T07:37:36;21.90;99.90
13264;DHT22;6700;51.988;7.646;2022-08-19T07:40:06;22.20;99.90
13264;DHT22;6700;51.988;7.646;2022-08-19T07:42:33;21.90;99.90
13264;DHT22;6700;51.988;7.646;2022-08-19T07:45:00;22.00;99.90
13264;DHT22;6700;51.988;7.646;2022-08-19T07:47:27;21.90;99.90
13264;DHT22;6700;51.988;7.646;2022-08-19T07:50:15;22.10;99.90
13264;DHT22;6700;51.988;7.646;2022-08-19T07:52:42;22.30;99.90
13264;DHT22;6700;51.988;7.646;2022-08-19T07:55:17;22.30;99.90
13264;DHT22;6700;51.988;7.646;2022-08-19T07:58:04;22.30;99.90
13264;DHT22;6700;51.988;7.646;2022-08-19T08:00:31;22.20;99.90
13264;DHT22;6700;51.988;7.646;2022-08-19T08:02:58;22.70;99.90
13264;DHT22;6700;51.988;7.646;2022-08-19T08:05:25;22.60;99.90
13264;DHT22;6700;51.988;7.646;2022-08-19T08:08:15;22.50;99.90
13264;DHT22;6700;51.988;7.646;2022-08-19T08:11:01;22.50;99.90
13264;DHT22;6700;51.988;7.646;2022-08-19T08:13:33;22.50;99.90
13264;DHT22;6700;51.988;7.646;2022-08-19T08:16:02;22.40;99.90
13264;DHT22;6700;51.988;7.646;2022-08-19T08:18:29;22.30;99.90
13264;DHT22;6700;51.988;7.646;2022-08-19T08:20:56;22.40;99.90
13264;DHT22;6700;51.988;7.646;2022-08-19T08:23:24;22.70;99.90
13264;DHT22;6700;51.988;7.646;2022-08-19T08:25:55;22.70;99.90
13264;DHT22;6700;51.988;7.646;2022-08-19T08:28:23;23.00;99.90
13264;DHT22;6700;51.988;7.646;2022-08-19T08:30:51;22.80;99.90
13264;DHT22;6700;51.988;7.646;2022-08-19T08:33:24;23.10;99.90
13264;DHT22;6700;51.988;7.646;2022-08-19T08:36:07;23.50;99.90
13264;DHT22;6700;51.988;7.646;2022-08-19T08:38:35;23.40;99.90
13264;DHT22;6700;51.988;7.646;2022-08-19T08:41:26;23.60;99.90
13264;DHT22;6700;51.988;7.646;2022-08-19T08:43:55;23.80;99.90
13264;DHT22;6700;51.988;7.646;2022-08-19T08:46:37;23.90;99.90
13264;DHT22;6700;51.988;7.646;2022-08-19T08:54:49;24.20;99.90
13264;DHT22;6700;51.988;7.646;2022-08-19T09:00:29;25.30;99.90
13264;DHT22;6700;51.988;7.646;2022-08-19T09:02:58;25.30;99.90
13264;DHT22;6700;51.988;7.646;2022-08-19T09:11:09;25.70;99.90
13264;DHT22;6700;51.988;7.646;2022-08-19T09:16:21;25.20;99.90
13264;DHT22;6700;51.988;7.646;2022-08-19T09:18:57;25.10;99.90
13264;DHT22;6700;51.988;7.646;2022-08-19T09:21:25;25.00;99.90
13264;DHT22;6700;51.988;7.646;2022-08-19T09:24:02;25.00;99.90
13264;DHT22;6700;51.988;7.646;2022-08-19T09:26:32;25.20;99.90
13264;DHT22;6700;51.988;7.646;2022-08-19T09:29:18;25.30;99.90
13264;DHT22;6700;51.988;7.646;2022-08-19T09:31:48;25.70;99.90
13264;DHT22;6700;51.988;7.646;2022-08-19T09:34:15;25.40;99.90
13264;DHT22;6700;51.988;7.646;2022-08-19T09:36:48;25.50;99.90
13264;DHT22;6700;51.988;7.646;2022-08-19T09:39:20;25.00;99.90
13264;DHT22;6700;51.988;7.646;2022-08-19T09:41:47;24.70;99.90
13264;DHT22;6700;51.988;7.646;2022-08-19T09:44:17;24.60;99.90
13264;DHT22;6700;51.988;7.646;2022-08-19T09:46:44;24.90;99.90
13264;DHT22;6700;51.988;7.646;2022-08-19T09:49:14;25.00;99.90
13264;DHT22;6700;51.988;7.646;2022-08-19T09:51:44;24.80;99.90
13264;DHT22;6700;51.988;7.646;2022-08-19T09:54:17;24.80;99.90
13264;DHT22;6700;51.988;7.646;2022-08-19T09:56:49;24.90;99.90
13264;DHT22;6700;51.988;7.646;2022-08-19T09:59:16;25.40;99.90
13264;DHT22;6700;51.988;7.646;2022-08-19T10:01:43;25.50;99.90
13264;DHT22;6700;51.988;7.646;2022-08-19T10:04:11;25.80;99.90
13264;DHT22;6700;51.988;7.646;2022-08-19T10:06:46;25.80;99.90
13264;DHT22;6700;51.988;7.646;2022-08-19T10:09:19;26.00;99.90
13264;DHT22;6700;51.988;7.646;2022-08-19T10:12:00;26.10;99.90
13264;DHT22;6700;51.988;7.646;2022-08-19T10:14:28;26.30;99.90
13264;DHT22;6700;51.988;7.646;2022-08-19T10:16:55;26.40;99.90
13264;DHT22;6700;51.988;7.646;2022-08-19T10:19:24;26.40;99.90
13264;DHT22;6700;51.988;7.646;2022-08-19T10:21:53;26.50;99.90
13264;DHT22;6700;51.988;7.646;2022-08-19T10:24:24;26.40;99.90
13264;DHT22;6700;51.988;7.646;2022-08-19T10:26:53;26.50;99.90
13264;DHT22;6700;51.988;7.646;2022-08-19T10:29:28;26.70;99.90
13264;DHT22;6700;51.988;7.646;2022-08-19T10:31:59;26.80;99.90
13264;DHT22;6700;51.988;7.646;2022-08-19T10:34:29;26.80;99.90
13264;DHT22;6700;51.988;7.646;2022-08-19T10:36:57;26.90;99.90
13264;DHT22;6700;51.988;7.646;2022-08-19T10:39:31;26.90;99.90
13264;DHT22;6700;51.988;7.646;2022-08-19T10:42:09;26.80;99.90
13264;DHT22;6700;51.988;7.646;2022-08-19T10:44:40;26.60;99.90
13264;DHT22;6700;51.988;7.646;2022-08-19T10:47:07;26.20;99.90
13264;DHT22;6700;51.988;7.646;2022-08-19T10:49:50;26.10;99.90
13264;DHT22;6700;51.988;7.646;2022-08-19T10:52:38;26.10;99.90
13264;DHT22;6700;51.988;7.646;2022-08-19T10:55:17;26.00;99.90
13264;DHT22;6700;51.988;7.646;2022-08-19T10:58:03;26.00;99.90
13264;DHT22;6700;51.988;7.646;2022-08-19T11:00:31;26.00;99.90
13264;DHT22;6700;51.988;7.646;2022-08-19T11:02:58;26.10;99.90
13264;DHT22;6700;51.988;7.646;2022-08-19T11:05:25;26.40;99.90
13264;DHT22;6700;51.988;7.646;2022-08-19T11:07:52;26.60;99.90
13264;DHT22;6700;51.988;7.646;2022-08-19T11:10:19;26.40;99.90
13264;DHT22;6700;51.988;7.646;2022-08-19T11:12:48;26.20;99.90
13264;DHT22;6700;51.988;7.646;2022-08-19T11:15:15;26.10;99.90
13264;DHT22;6700;51.988;7.646;2022-08-19T11:17:42;25.90;99.90
13264;DHT22;6700;51.988;7.646;2022-08-19T11:20:14;26.10;99.90
13264;DHT22;6700;51.988;7.646;2022-08-19T11:22:41;26.20;99.90
13264;DHT22;6700;51.988;7.646;2022-08-19T11:25:10;26.20;99.90
13264;DHT22;6700;51.988;7.646;2022-08-19T11:27:41;26.20;99.90
13264;DHT22;6700;51.988;7.646;2022-08-19T11:30:11;26.50;99.90
13264;DHT22;6700;51.988;7.646;2022-08-19T11:32:40;26.50;99.90
13264;DHT22;6700;51.988;7.646;2022-08-19T11:35:14;26.50;99.90
13264;DHT22;6700;51.988;7.646;2022-08-19T11:37:40;26.60;99.90
13264;DHT22;6700;51.988;7.646;2022-08-19T11:40:09;26.60;99.90
13264;DHT22;6700;51.988;7.646;2022-08-19T11:42:37;26.40;99.90
13264;DHT22;6700;51.988;7.646;2022-08-19T11:45:27;26.10;99.90
13264;DHT22;6700;51.988;7.646;2022-08-19T11:47:55;26.10;99.90
13264;DHT22;6700;51.988;7.646;2022-08-19T11:50:23;25.90;99.90
13264;DHT22;6700;51.988;7.646;2022-08-19T11:52:53;26.30;99.90
13264;DHT22;6700;51.988;7.646;2022-08-19T11:55:20;26.50;99.90
13264;DHT22;6700;51.988;7.646;2022-08-19T11:57:47;26.60;99.90
13264;DHT22;6700;51.988;7.646;2022-08-19T12:00:14;26.80;99.90
13264;DHT22;6700;51.988;7.646;2022-08-19T12:02:41;26.80;99.90
13264;DHT22;6700;51.988;7.646;2022-08-19T12:05:09;26.60;99.90
13264;DHT22;6700;51.988;7.646;2022-08-19T12:07:39;26.40;99.90
13264;DHT22;6700;51.988;7.646;2022-08-19T12:10:07;26.40;99.90
13264;DHT22;6700;51.988;7.646;2022-08-19T12:12:36;26.10;99.90
13264;DHT22;6700;51.988;7.646;2022-08-19T12:15:07;25.90;99.90
13264;DHT22;6700;51.988;7.646;2022-08-19T12:17:34;25.80;99.90
13264;DHT22;6700;51.988;7.646;2022-08-19T12:20:01;25.80;99.90
13264;DHT22;6700;51.988;7.646;2022-08-19T12:22:28;25.80;99.90
13264;DHT22;6700;51.988;7.646;2022-08-19T12:24:55;26.00;99.90
13264;DHT22;6700;51.988;7.646;2022-08-19T12:27:24;26.20;99.90
13264;DHT22;6700;51.988;7.646;2022-08-19T12:30:08;26.60;99.90
13264;DHT22;6700;51.988;7.646;2022-08-19T12:32:35;27.00;99.90
13264;DHT22;6700;51.988;7.646;2022-08-19T12:35:02;27.30;99.90
13264;DHT22;6700;51.988;7.646;2022-08-19T12:37:29;27.40;99.90
13264;DHT22;6700;51.988;7.646;2022-08-19T12:39:58;27.70;99.90
13264;DHT22;6700;51.988;7.646;2022-08-19T12:42:25;27.80;99.90
13264;DHT22;6700;51.988;7.646;2022-08-19T12:44:52;27.80;99.90
13264;DHT22;6700;51.988;7.646;2022-08-19T12:47:19;27.70;99.90
13264;DHT22;6700;51.988;7.646;2022-08-19T12:49:48;27.70;99.90
13264;DHT22;6700;51.988;7.646;2022-08-19T12:52:22;27.60;99.90
13264;DHT22;6700;51.988;7.646;2022-08-19T12:54:51;27.40;99.90
13264;DHT22;6700;51.988;7.646;2022-08-19T12:57:24;27.40;99.90
13264;DHT22;6700;51.988;7.646;2022-08-19T13:00:11;27.10;99.90
13264;DHT22;6700;51.988;7.646;2022-08-19T13:02:42;26.70;99.90
13264;DHT22;6700;51.988;7.646;2022-08-19T13:05:13;26.50;99.90
13264;DHT22;6700;51.988;7.646;2022-08-19T13:07:41;26.30;99.90
13264;DHT22;6700;51.988;7.646;2022-08-19T13:10:13;26.40;99.90
13264;DHT22;6700;51.988;7.646;2022-08-19T13:12:43;26.50;99.90
13264;DHT22;6700;51.988;7.646;2022-08-19T13:15:11;26.60;99.90
13264;DHT22;6700;51.988;7.646;2022-08-19T13:17:41;26.30;99.90
13264;DHT22;6700;51.988;7.646;2022-08-19T13:20:09;26.50;99.90
13264;DHT22;6700;51.988;7.646;2022-08-19T13:22:37;26.50;99.90
13264;DHT22;6700;51.988;7.646;2022-08-19T13:25:05;26.40;99.90
13264;DHT22;6700;51.988;7.646;2022-08-19T13:27:33;26.60;99.90
13264;DHT22;6700;51.988;7.646;2022-08-19T13:30:00;26.30;99.90
13264;DHT22;6700;51.988;7.646;2022-08-19T13:32:46;26.40;99.90
13264;DHT22;6700;51.988;7.646;2022-08-19T13:35:32;26.10;99.90
13264;DHT22;6700;51.988;7.646;2022-08-19T13:37:59;26.00;99.90
13264;DHT22;6700;51.988;7.646;2022-08-19T13:40:27;26.00;99.90
13264;DHT22;6700;51.988;7.646;2022-08-19T13:42:56;25.90;99.90
13264;DHT22;6700;51.988;7.646;2022-08-19T13:45:26;26.00;99.90
13264;DHT22;6700;51.988;7.646;2022-08-19T13:47:54;26.10;99.90
13264;DHT22;6700;51.988;7.646;2022-08-19T13:50:28;25.90;99.90
13264;DHT22;6700;51.988;7.646;2022-08-19T13:52:55;25.90;99.90
13264;DHT22;6700;51.988;7.646;2022-08-19T13:55:23;25.80;99.90
13264;DHT22;6700;51.988;7.646;2022-08-19T13:57:52;26.00;99.90
13264;DHT22;6700;51.988;7.646;2022-08-19T14:00:20;26.10;99.90
13264;DHT22;6700;51.988;7.646;2022-08-19T14:02:51;26.20;99.90
13264;DHT22;6700;51.988;7.646;2022-08-19T14:05:18;26.20;99.90
13264;DHT22;6700;51.988;7.646;2022-08-19T14:07:45;26.40;99.90
13264;DHT22;6700;51.988;7.646;2022-08-19T14:10:13;26.40;99.90
13264;DHT22;6700;51.988;7.646;2022-08-19T14:12:40;26.30;99.90
13264;DHT22;6700;51.988;7.646;2022-08-19T14:15:09;26.10;99.90
13264;DHT22;6700;51.988;7.646;2022-08-19T14:17:40;26.00;99.90
13264;DHT22;6700;51.988;7.646;2022-08-19T14:20:09;26.10;99.90
13264;DHT22;6700;51.988;7.646;2022-08-19T14:22:44;26.10;99.90
13264;DHT22;6700;51.988;7.646;2022-08-19T14:25:16;26.40;99.90
13264;DHT22;6700;51.988;7.646;2022-08-19T14:27:43;26.70;99.90
13264;DHT22;6700;51.988;7.646;2022-08-19T14:30:13;26.60;99.90
13264;DHT22;6700;51.988;7.646;2022-08-19T14:32:42;26.30;99.90
13264;DHT22;6700;51.988;7.646;2022-08-19T14:35:10;26.30;99.90
13264;DHT22;6700;51.988;7.646;2022-08-19T14:37:39;26.40;99.90
13264;DHT22;6700;51.988;7.646;2022-08-19T14:40:13;26.50;99.90
13264;DHT22;6700;51.988;7.646;2022-08-19T14:42:40;26.50;99.90
13264;DHT22;6700;51.988;7.646;2022-08-19T14:45:10;26.40;99.90
13264;DHT22;6700;51.988;7.646;2022-08-19T14:47:38;26.40;99.90
13264;DHT22;6700;51.988;7.646;2022-08-19T14:50:08;26.30;99.90
13264;DHT22;6700;51.988;7.646;2022-08-19T14:52:43;26.40;99.90
13264;DHT22;6700;51.988;7.646;2022-08-19T14:55:10;26.50;99.90
13264;DHT22;6700;51.988;7.646;2022-08-19T14:57:37;26.60;99.90
13264;DHT22;6700;51.988;7.646;2022-08-19T15:00:07;26.60;99.90
13264;DHT22;6700;51.988;7.646;2022-08-19T15:02:38;26.60;99.90
13264;DHT22;6700;51.988;7.646;2022-08-19T15:05:06;26.60;99.90
13264;DHT22;6700;51.988;7.646;2022-08-19T15:07:33;26.40;99.90
13264;DHT22;6700;51.988;7.646;2022-08-19T15:09:59;26.40;99.90
13264;DHT22;6700;51.988;7.646;2022-08-19T15:12:26;26.30;99.90
13264;DHT22;6700;51.988;7.646;2022-08-19T15:14:53;26.20;99.90
13264;DHT22;6700;51.988;7.646;2022-08-19T15:17:22;26.20;99.90
13264;DHT22;6700;51.988;7.646;2022-08-19T15:20:11;26.10;99.90
13264;DHT22;6700;51.988;7.646;2022-08-19T15:22:39;25.90;99.90
13264;DHT22;6700;51.988;7.646;2022-08-19T15:25:09;26.00;99.90
13264;DHT22;6700;51.988;7.646;2022-08-19T15:27:38;26.20;99.90
13264;DHT22;6700;51.988;7.646;2022-08-19T15:30:06;26.00;99.90
13264;DHT22;6700;51.988;7.646;2022-08-19T15:32:35;26.20;99.90
13264;DHT22;6700;51.988;7.646;2022-08-19T15:35:07;25.90;99.90
13264;DHT22;6700;51.988;7.646;2022-08-19T15:37:34;26.00;99.90
13264;DHT22;6700;51.988;7.646;2022-08-19T15:40:04;25.80;99.90
13264;DHT22;6700;51.988;7.646;2022-08-19T15:42:32;25.80;99.90
13264;DHT22;6700;51.988;7.646;2022-08-19T15:45:01;25.60;99.90
13264;DHT22;6700;51.988;7.646;2022-08-19T15:47:29;25.60;99.90
13264;DHT22;6700;51.988;7.646;2022-08-19T15:50:18;25.60;99.90
13264;DHT22;6700;51.988;7.646;2022-08-19T15:52:50;25.60;99.90
13264;DHT22;6700;51.988;7.646;2022-08-19T15:55:21;25.30;99.90
13264;DHT22;6700;51.988;7.646;2022-08-19T15:58:18;25.50;99.90
13264;DHT22;6700;51.988;7.646;2022-08-19T16:01:06;25.40;99.90
13264;DHT22;6700;51.988;7.646;2022-08-19T16:03:53;25.30;99.90
13264;DHT22;6700;51.988;7.646;2022-08-19T16:07:02;25.40;99.90
13264;DHT22;6700;51.988;7.646;2022-08-19T16:09:30;25.50;99.90
13264;DHT22;6700;51.988;7.646;2022-08-19T16:12:00;25.30;99.90
13264;DHT22;6700;51.988;7.646;2022-08-19T16:14:30;25.20;99.90
13264;DHT22;6700;51.988;7.646;2022-08-19T16:16:57;25.60;99.90
13264;DHT22;6700;51.988;7.646;2022-08-19T16:19:24;25.30;99.90
13264;DHT22;6700;51.988;7.646;2022-08-19T16:21:53;25.20;99.90
13264;DHT22;6700;51.988;7.646;2022-08-19T16:24:23;25.10;99.90